createdAt,value
2018-04-14T00:00:14.001Z,13.60
2018-04-14T00:01:14.005Z,13.60
2018-04-14T00:03:06.911Z,13.60
2018-04-14T00:04:06.932Z,13.57
2018-04-14T00:05:59.861Z,13.59
2018-04-14T00:06:59.863Z,13.67
2018-04-14T00:08:52.787Z,13.66
2018-04-14T00:09:52.805Z,13.59
2018-04-14T00:11:45.694Z,13.64
2018-04-14T00:12:45.716Z,13.63
2018-04-14T00:14:38.645Z,13.62
2018-04-14T00:15:38.644Z,13.62
2018-04-14T00:17:31.549Z,13.51
2018-04-14T00:18:31.572Z,13.57
2018-04-14T00:20:24.497Z,13.57
2018-04-14T00:21:24.496Z,13.59
2018-04-14T00:23:17.436Z,13.70
2018-04-14T00:24:17.450Z,13.59
2018-04-14T00:26:10.415Z,13.66
2018-04-14T00:27:10.348Z,13.64
2018-04-14T00:29:03.269Z,13.69
2018-04-14T00:30:03.274Z,13.70
2018-04-14T00:31:56.176Z,13.60
2018-04-14T00:32:56.201Z,13.62
2018-04-14T00:34:49.118Z,13.57
2018-04-14T00:35:49.123Z,13.62
2018-04-14T00:37:42.095Z,13.59
2018-04-14T00:38:42.051Z,13.54
2018-04-14T00:40:34.977Z,13.59
2018-04-14T00:41:34.978Z,13.57
2018-04-14T00:43:27.878Z,13.51
2018-04-14T00:44:27.916Z,13.59
2018-04-14T00:46:20.830Z,13.52
2018-04-14T00:47:20.830Z,13.49
2018-04-14T00:49:13.754Z,13.45
2018-04-14T00:50:13.757Z,13.44
2018-04-14T00:52:06.661Z,13.39
2018-04-14T00:53:06.681Z,13.41
2018-04-14T00:54:59.602Z,13.52
2018-04-14T00:55:59.609Z,13.51
2018-04-14T00:57:53.081Z,13.48
2018-04-14T00:58:52.534Z,13.49
2018-04-14T01:00:45.453Z,13.52
2018-04-14T01:01:45.456Z,13.39
2018-04-14T01:03:38.435Z,13.45
2018-04-14T01:04:38.381Z,13.54
2018-04-14T01:06:31.302Z,13.55
2018-04-14T01:07:31.304Z,13.54
2018-04-14T01:09:24.231Z,13.66
2018-04-14T01:10:24.232Z,13.54
2018-04-14T01:12:17.137Z,13.55
2018-04-14T01:13:17.156Z,13.54
2018-04-14T01:15:10.077Z,13.51
2018-04-14T01:16:10.083Z,13.48
2018-04-14T01:18:02.983Z,13.45
2018-04-14T01:19:03.005Z,13.29
2018-04-14T01:20:55.998Z,13.28
2018-04-14T01:21:55.932Z,13.26
2018-04-14T01:23:48.904Z,13.22
2018-04-14T01:24:48.858Z,13.26
2018-04-14T01:26:41.777Z,13.15
2018-04-14T01:27:41.778Z,13.19
2018-04-14T01:29:34.701Z,13.04
2018-04-14T01:30:34.703Z,13.01
2018-04-14T01:32:27.663Z,13.03
2018-04-14T01:33:27.629Z,12.97
2018-04-14T01:35:20.551Z,12.95
2018-04-14T01:36:20.552Z,12.90
2018-04-14T01:38:14.366Z,12.87
2018-04-14T01:39:13.479Z,12.85
2018-04-14T01:41:06.419Z,12.82
2018-04-14T01:42:06.443Z,12.74
2018-04-14T01:43:59.394Z,12.77
2018-04-14T01:44:59.409Z,12.77
2018-04-14T01:46:52.275Z,12.72
2018-04-14T01:47:52.280Z,12.82
2018-04-14T01:49:45.202Z,12.77
2018-04-14T01:50:45.205Z,12.85
2018-04-14T01:52:38.177Z,12.79
2018-04-14T01:53:38.130Z,12.70
2018-04-14T01:55:31.125Z,12.83
2018-04-14T01:56:31.052Z,12.72
2018-04-14T01:58:23.955Z,12.72
2018-04-14T01:59:23.979Z,12.74
2018-04-14T02:01:16.905Z,12.79
2018-04-14T02:02:16.903Z,12.83
2018-04-14T02:04:09.874Z,12.74
2018-04-14T02:05:09.825Z,12.82
2018-04-14T02:07:02.744Z,12.85
2018-04-14T02:08:02.748Z,12.85
2018-04-14T02:09:55.739Z,12.90
2018-04-14T02:10:55.673Z,12.93
2018-04-14T02:12:48.585Z,12.87
2018-04-14T02:13:48.610Z,12.92
2018-04-14T02:15:41.589Z,13.01
2018-04-14T02:16:41.673Z,12.93
2018-04-14T02:18:34.421Z,13.05
2018-04-14T02:19:34.443Z,12.96
2018-04-14T02:21:27.437Z,13.05
2018-04-14T02:22:27.370Z,13.04
2018-04-14T02:24:20.276Z,12.97
2018-04-14T02:25:20.295Z,12.87
2018-04-14T02:27:13.216Z,12.92
2018-04-14T02:28:13.220Z,12.87
2018-04-14T02:30:06.144Z,12.95
2018-04-14T02:31:06.144Z,12.90
2018-04-14T02:32:59.048Z,13.00
2018-04-14T02:33:59.070Z,12.96
2018-04-14T02:35:51.992Z,12.89
2018-04-14T02:36:51.994Z,12.96
2018-04-14T02:38:44.967Z,13.01
2018-04-14T02:39:44.918Z,12.85
2018-04-14T02:41:37.840Z,12.95
2018-04-14T02:42:37.848Z,12.87
2018-04-14T02:44:30.743Z,12.97
2018-04-14T02:45:30.774Z,12.89
2018-04-14T02:47:23.756Z,12.92
2018-04-14T02:48:23.688Z,12.95
2018-04-14T02:50:16.611Z,12.90
2018-04-14T02:51:16.613Z,12.97
2018-04-14T02:53:09.514Z,13.04
2018-04-14T02:54:09.535Z,12.96
2018-04-14T02:56:02.526Z,13.05
2018-04-14T02:57:02.531Z,13.05
2018-04-14T02:58:55.383Z,13.01
2018-04-14T02:59:55.382Z,13.05
2018-04-14T03:01:48.308Z,13.03
2018-04-14T03:02:48.309Z,13.00
2018-04-14T03:04:41.215Z,13.00
2018-04-14T03:05:41.235Z,13.05
2018-04-14T03:07:34.155Z,13.03
2018-04-14T03:08:34.157Z,13.10
2018-04-14T03:10:27.079Z,13.04
2018-04-14T03:11:27.080Z,13.03
2018-04-14T03:13:19.986Z,13.14
2018-04-14T03:14:20.003Z,13.14
2018-04-14T03:16:12.926Z,13.05
2018-04-14T03:17:12.932Z,13.00
2018-04-14T03:19:05.832Z,13.04
2018-04-14T03:20:05.853Z,13.08
2018-04-14T03:21:58.773Z,13.03
2018-04-14T03:22:58.775Z,12.95
2018-04-14T03:24:51.749Z,12.96
2018-04-14T03:25:51.705Z,13.03
2018-04-14T03:27:44.625Z,12.97
2018-04-14T03:28:44.629Z,12.95
2018-04-14T03:30:37.624Z,12.89
2018-04-14T03:31:37.552Z,13.01
2018-04-14T03:33:30.452Z,12.93
2018-04-14T03:34:30.476Z,12.87
2018-04-14T03:36:23.392Z,13.00
2018-04-14T03:37:23.396Z,13.01
2018-04-14T03:39:16.295Z,12.90
2018-04-14T03:40:16.316Z,12.89
2018-04-14T03:42:09.239Z,12.90
2018-04-14T03:43:09.247Z,12.95
2018-04-14T03:45:02.143Z,12.95
2018-04-14T03:46:02.166Z,13.00
2018-04-14T03:47:55.288Z,13.04
2018-04-14T03:48:55.289Z,12.96
2018-04-14T03:50:48.218Z,13.03
2018-04-14T03:51:48.220Z,13.07
2018-04-14T03:53:41.119Z,13.08
2018-04-14T03:54:41.141Z,13.04
2018-04-14T03:56:34.164Z,12.92
2018-04-14T03:57:34.066Z,12.92
2018-04-14T03:59:26.970Z,12.97
2018-04-14T04:00:26.993Z,13.05
2018-04-14T04:02:19.910Z,13.01
2018-04-14T04:03:19.914Z,12.95
2018-04-14T04:05:12.900Z,13.05
2018-04-14T04:06:12.836Z,13.03
2018-04-14T04:08:05.759Z,13.03
2018-04-14T04:09:05.764Z,13.04
2018-04-14T04:10:58.682Z,13.08
2018-04-14T04:11:58.685Z,13.05
2018-04-14T04:13:51.588Z,13.07
2018-04-14T04:14:51.612Z,13.07
2018-04-14T04:16:44.531Z,13.14
2018-04-14T04:17:44.537Z,13.01
2018-04-14T04:19:37.435Z,13.01
2018-04-14T04:20:37.459Z,13.03
2018-04-14T04:22:30.382Z,13.12
2018-04-14T04:23:30.383Z,13.15
2018-04-14T04:25:23.285Z,13.25
2018-04-14T04:26:23.307Z,13.14
2018-04-14T04:28:16.345Z,13.10
2018-04-14T04:29:16.230Z,13.19
2018-04-14T04:31:09.135Z,13.17
2018-04-14T04:32:09.166Z,13.15
2018-04-14T04:34:02.149Z,13.14
2018-04-14T04:35:02.079Z,13.22
2018-04-14T04:36:54.985Z,13.23
2018-04-14T04:37:55.004Z,13.17
2018-04-14T04:39:47.931Z,13.20
2018-04-14T04:40:47.935Z,13.17
2018-04-14T04:42:40.858Z,13.17
2018-04-14T04:43:40.868Z,13.15
2018-04-14T04:45:33.763Z,13.10
2018-04-14T04:46:33.799Z,13.05
2018-04-14T04:48:26.707Z,13.03
2018-04-14T04:49:26.710Z,13.03
2018-04-14T04:51:19.633Z,13.05
2018-04-14T04:52:19.636Z,13.04
2018-04-14T04:54:12.641Z,12.93
2018-04-14T04:55:12.568Z,13.01
2018-04-14T04:57:05.491Z,12.95
2018-04-14T04:58:05.495Z,12.93
2018-04-14T04:59:58.400Z,12.92
2018-04-14T05:00:58.420Z,12.89
2018-04-14T05:02:51.345Z,12.97
2018-04-14T05:03:51.349Z,12.97
2018-04-14T05:05:44.322Z,12.87
2018-04-14T05:06:44.272Z,12.78
2018-04-14T05:08:37.193Z,12.74
2018-04-14T05:09:37.197Z,12.70
2018-04-14T05:11:30.122Z,12.72
2018-04-14T05:12:30.123Z,12.71
2018-04-14T05:14:23.023Z,12.79
2018-04-14T05:15:23.047Z,12.79
2018-04-14T05:17:15.964Z,12.75
2018-04-14T05:18:15.967Z,12.78
2018-04-14T05:20:08.873Z,12.62
2018-04-14T05:21:08.893Z,12.53
2018-04-14T05:23:01.818Z,12.60
2018-04-14T05:24:01.817Z,12.54
2018-04-14T05:25:54.721Z,12.35
2018-04-14T05:26:54.739Z,12.46
2018-04-14T05:28:47.662Z,12.41
2018-04-14T05:29:47.664Z,12.38
2018-04-14T05:31:40.589Z,12.35
2018-04-14T05:32:40.592Z,12.28
2018-04-14T05:34:33.490Z,12.17
2018-04-14T05:35:33.511Z,12.13
2018-04-14T05:37:26.440Z,12.20
2018-04-14T05:38:26.433Z,12.14
2018-04-14T05:40:19.333Z,12.10
2018-04-14T05:41:19.357Z,12.09
2018-04-14T05:43:12.274Z,11.98
2018-04-14T05:44:12.282Z,12.02
2018-04-14T05:46:05.177Z,11.98
2018-04-14T05:47:05.201Z,11.99
2018-04-14T05:48:58.117Z,11.90
2018-04-14T05:49:58.121Z,11.86
2018-04-14T05:51:51.038Z,11.90
2018-04-14T05:52:51.044Z,11.90
2018-04-14T05:54:44.013Z,11.67
2018-04-14T05:55:43.963Z,11.73
2018-04-14T05:57:36.895Z,11.76
2018-04-14T05:58:36.885Z,11.72
2018-04-14T06:00:29.789Z,11.73
2018-04-14T06:01:29.810Z,11.73
2018-04-14T06:03:22.726Z,11.76
2018-04-14T06:04:22.729Z,11.85
2018-04-14T06:06:15.721Z,11.99
2018-04-14T06:07:15.655Z,12.09
2018-04-14T06:09:08.576Z,12.12
2018-04-14T06:10:08.574Z,12.07
2018-04-14T06:12:01.496Z,12.16
2018-04-14T06:13:01.498Z,12.10
2018-04-14T06:14:54.435Z,12.04
2018-04-14T06:15:54.469Z,12.05
2018-04-14T06:17:47.340Z,11.98
2018-04-14T06:18:47.340Z,12.02
2018-04-14T06:20:40.331Z,11.88
2018-04-14T06:21:40.264Z,12.12
2018-04-14T06:23:33.160Z,12.14
2018-04-14T06:24:33.186Z,12.12
2018-04-14T06:26:26.108Z,12.16
2018-04-14T06:27:26.106Z,12.21
2018-04-14T06:29:19.029Z,12.16
2018-04-14T06:30:19.028Z,12.14
2018-04-14T06:32:11.951Z,12.09
2018-04-14T06:33:11.950Z,12.21
2018-04-14T06:35:04.856Z,12.32
2018-04-14T06:36:04.872Z,12.31
2018-04-14T06:37:57.793Z,12.54
2018-04-14T06:38:57.801Z,12.54
2018-04-14T06:40:50.695Z,12.65
2018-04-14T06:41:50.717Z,12.77
2018-04-14T06:43:43.645Z,12.89
2018-04-14T06:44:43.652Z,12.97
2018-04-14T06:46:36.549Z,13.07
2018-04-14T06:47:36.574Z,13.17
2018-04-14T06:49:29.491Z,13.23
2018-04-14T06:50:29.499Z,13.28
2018-04-14T06:52:22.421Z,13.51
2018-04-14T06:53:22.423Z,13.48
2018-04-14T06:55:15.328Z,13.36
2018-04-14T06:56:15.351Z,13.30
2018-04-14T06:58:08.271Z,13.29
2018-04-14T06:59:08.272Z,13.33
2018-04-14T07:01:01.193Z,13.30
2018-04-14T07:02:01.215Z,13.41
2018-04-14T07:03:54.140Z,13.32
2018-04-14T07:04:54.185Z,13.20
2018-04-14T07:06:47.051Z,13.17
2018-04-14T07:07:47.074Z,13.14
2018-04-14T07:09:40.006Z,13.11
2018-04-14T07:10:40.002Z,13.19
2018-04-14T07:12:32.920Z,13.29
2018-04-14T07:13:32.926Z,13.26
2018-04-14T07:15:25.830Z,13.20
2018-04-14T07:16:25.851Z,13.15
2018-04-14T07:18:18.776Z,13.42
2018-04-14T07:19:18.780Z,13.60
2018-04-14T07:21:11.858Z,13.78
2018-04-14T07:22:11.880Z,13.71
2018-04-14T07:24:04.886Z,13.88
2018-04-14T07:25:04.805Z,13.92
2018-04-14T07:26:57.712Z,13.84
2018-04-14T07:27:57.735Z,13.95
2018-04-14T07:29:50.829Z,14.20
2018-04-14T07:30:50.834Z,14.40
2018-04-14T07:32:43.755Z,14.42
2018-04-14T07:33:43.760Z,14.43
2018-04-14T07:35:36.666Z,14.46
2018-04-14T07:36:36.689Z,14.55
2018-04-14T07:38:29.790Z,14.28
2018-04-14T07:39:29.796Z,14.33
2018-04-14T07:41:22.929Z,14.40
2018-04-14T07:42:22.955Z,14.28
2018-04-14T07:44:16.127Z,14.39
2018-04-14T07:45:16.147Z,14.43
2018-04-14T07:47:10.036Z,14.43
2018-04-14T07:48:10.061Z,14.52
2018-04-14T07:50:02.989Z,14.73
2018-04-14T07:51:03.006Z,14.84
2018-04-14T07:52:56.130Z,15.02
2018-04-14T07:53:56.160Z,15.17
2018-04-14T07:55:49.010Z,15.32
2018-04-14T07:56:49.035Z,15.35
2018-04-14T07:58:42.120Z,15.34
2018-04-14T07:59:42.127Z,15.36
2018-04-14T08:01:35.034Z,15.44
2018-04-14T08:02:35.058Z,15.50
2018-04-14T08:04:27.992Z,15.43
2018-04-14T08:05:28.002Z,15.57
2018-04-14T08:07:20.965Z,15.64
2018-04-14T08:08:20.933Z,15.64
2018-04-14T08:10:14.026Z,15.60
2018-04-14T08:11:14.033Z,15.59
2018-04-14T08:13:06.968Z,15.59
2018-04-14T08:14:06.969Z,15.59
2018-04-14T08:16:00.032Z,15.69
2018-04-14T08:17:00.066Z,15.71
2018-04-14T08:18:54.144Z,15.64
2018-04-14T08:19:54.173Z,15.50
2018-04-14T08:21:47.059Z,15.69
2018-04-14T08:22:47.086Z,15.69
2018-04-14T08:24:40.056Z,15.78
2018-04-14T08:25:40.018Z,15.59
2018-04-14T08:27:32.941Z,15.67
2018-04-14T08:28:32.962Z,15.50
2018-04-14T08:30:25.888Z,15.47
2018-04-14T08:31:25.897Z,15.46
2018-04-14T08:33:18.996Z,15.50
2018-04-14T08:34:19.018Z,15.60
2018-04-14T08:36:11.912Z,15.68
2018-04-14T08:37:11.934Z,15.74
2018-04-14T08:39:04.863Z,15.82
2018-04-14T08:40:04.870Z,15.78
2018-04-14T08:41:57.782Z,15.94
2018-04-14T08:42:57.808Z,16.02
2018-04-14T08:44:50.911Z,16.02
2018-04-14T08:45:50.914Z,15.76
2018-04-14T08:47:43.824Z,15.92
2018-04-14T08:48:43.851Z,15.96
2018-04-14T08:50:36.799Z,15.89
2018-04-14T08:51:36.796Z,15.86
2018-04-14T08:53:29.726Z,15.86
2018-04-14T08:54:29.730Z,15.89
2018-04-14T08:56:23.761Z,15.82
2018-04-14T08:57:23.686Z,15.80
2018-04-14T08:59:16.587Z,15.80
2018-04-14T09:00:16.591Z,15.87
2018-04-14T09:02:09.503Z,16.02
2018-04-14T09:03:09.531Z,16.08
2018-04-14T09:05:02.489Z,16.09
2018-04-14T09:06:02.471Z,16.09
2018-04-14T09:07:55.431Z,15.89
2018-04-14T09:08:55.451Z,15.92
2018-04-14T09:10:48.446Z,16.05
2018-04-14T09:11:48.388Z,15.97
2018-04-14T09:13:41.320Z,16.02
2018-04-14T09:14:41.317Z,16.17
2018-04-14T09:16:34.255Z,16.21
2018-04-14T09:17:34.216Z,16.24
2018-04-14T09:19:27.154Z,16.33
2018-04-14T09:20:27.149Z,16.24
2018-04-14T09:22:20.063Z,16.28
2018-04-14T09:23:20.093Z,16.21
2018-04-14T09:25:13.031Z,16.12
2018-04-14T09:26:13.026Z,16.20
2018-04-14T09:28:05.981Z,16.34
2018-04-14T09:29:05.959Z,16.21
2018-04-14T09:30:58.926Z,15.83
2018-04-14T09:31:58.897Z,15.69
2018-04-14T09:33:51.892Z,15.62
2018-04-14T09:34:51.828Z,15.69
2018-04-14T09:36:44.740Z,15.97
2018-04-14T09:37:44.767Z,16.14
2018-04-14T09:39:37.783Z,16.52
2018-04-14T09:40:37.790Z,16.46
2018-04-14T09:42:30.705Z,16.38
2018-04-14T09:43:30.732Z,16.42
2018-04-14T09:45:23.865Z,16.48
2018-04-14T09:46:23.875Z,16.49
2018-04-14T09:48:16.783Z,16.53
2018-04-14T09:49:16.807Z,16.39
2018-04-14T09:51:09.901Z,16.56
2018-04-14T09:52:09.901Z,16.63
2018-04-14T09:54:02.830Z,16.78
2018-04-14T09:55:02.837Z,16.83
2018-04-14T09:56:55.747Z,16.94
2018-04-14T09:57:55.783Z,16.93
2018-04-14T09:59:48.716Z,16.86
2018-04-14T10:00:48.715Z,16.70
2018-04-14T10:02:41.628Z,16.50
2018-04-14T10:03:41.658Z,16.57
2018-04-14T10:05:34.578Z,16.60
2018-04-14T10:06:34.587Z,16.78
2018-04-14T10:08:27.500Z,16.94
2018-04-14T10:09:27.523Z,17.00
2018-04-14T10:11:20.452Z,16.86
2018-04-14T10:12:20.462Z,16.86
2018-04-14T10:14:13.393Z,16.89
2018-04-14T10:15:13.398Z,16.97
2018-04-14T10:17:06.313Z,16.98
2018-04-14T10:18:06.343Z,16.97
2018-04-14T10:19:59.276Z,16.66
2018-04-14T10:20:59.297Z,16.46
2018-04-14T10:22:52.198Z,16.35
2018-04-14T10:23:52.271Z,16.24
2018-04-14T10:25:45.156Z,16.21
2018-04-14T10:26:45.165Z,16.09
2018-04-14T10:28:38.070Z,16.21
2018-04-14T10:29:38.096Z,16.39
2018-04-14T10:31:31.028Z,16.49
2018-04-14T10:32:31.042Z,16.39
2018-04-14T10:34:23.968Z,16.48
2018-04-14T10:35:23.978Z,16.48
2018-04-14T10:37:17.871Z,16.49
2018-04-14T10:38:16.950Z,16.41
2018-04-14T10:40:11.882Z,16.60
2018-04-14T10:41:10.907Z,16.67
2018-04-14T10:43:03.811Z,16.63
2018-04-14T10:44:04.412Z,16.48
2018-04-14T10:45:56.862Z,16.64
2018-04-14T10:46:56.772Z,16.63
2018-04-14T10:48:49.682Z,16.75
2018-04-14T10:49:49.748Z,16.83
2018-04-14T10:51:42.637Z,17.08
2018-04-14T10:52:42.693Z,17.15
2018-04-14T10:54:35.575Z,17.46
2018-04-14T10:55:35.580Z,17.38
2018-04-14T10:57:28.509Z,17.68
2018-04-14T10:58:28.518Z,17.71
2018-04-14T11:00:21.515Z,17.92
2018-04-14T11:01:21.558Z,18.08
2018-04-14T11:03:14.366Z,18.32
2018-04-14T11:04:14.392Z,18.60
2018-04-14T11:06:07.322Z,18.72
2018-04-14T11:07:07.340Z,18.70
2018-04-14T11:09:00.242Z,18.62
2018-04-14T11:10:00.270Z,18.67
2018-04-14T11:11:53.202Z,18.57
2018-04-14T11:12:53.217Z,18.70
2018-04-14T11:14:46.146Z,18.66
2018-04-14T11:15:46.157Z,18.69
2018-04-14T11:17:39.132Z,18.57
2018-04-14T11:18:39.099Z,18.51
2018-04-14T11:20:32.043Z,18.37
2018-04-14T11:21:32.086Z,18.26
2018-04-14T11:23:25.021Z,18.15
2018-04-14T11:24:24.986Z,18.15
2018-04-14T11:26:18.084Z,18.14
2018-04-14T11:27:17.917Z,18.14
2018-04-14T11:29:10.870Z,18.14
2018-04-14T11:30:10.856Z,18.17
2018-04-14T11:32:03.789Z,18.11
2018-04-14T11:33:03.796Z,18.23
2018-04-14T11:34:56.987Z,18.12
2018-04-14T11:35:57.039Z,18.17
2018-04-14T11:37:49.935Z,18.10
2018-04-14T11:38:49.924Z,17.74
2018-04-14T11:40:42.863Z,17.51
2018-04-14T11:41:42.890Z,17.25
2018-04-14T11:43:35.986Z,17.26
2018-04-14T11:44:36.023Z,17.12
2018-04-14T11:46:29.008Z,17.34
2018-04-14T11:47:28.952Z,17.18
2018-04-14T11:49:21.877Z,17.23
2018-04-14T11:50:21.910Z,17.23
2018-04-14T11:52:14.842Z,17.31
2018-04-14T11:53:14.847Z,17.28
2018-04-14T11:55:07.848Z,17.40
2018-04-14T11:56:07.787Z,17.51
2018-04-14T11:58:00.707Z,17.55
2018-04-14T11:59:00.749Z,17.71
2018-04-14T12:00:53.658Z,17.58
2018-04-14T12:01:53.668Z,17.44
2018-04-14T12:03:46.574Z,17.48
2018-04-14T12:04:46.600Z,17.48
2018-04-14T12:06:39.601Z,17.66
2018-04-14T12:07:39.538Z,17.78
2018-04-14T12:09:32.471Z,18.05
2018-04-14T12:10:32.518Z,18.07
2018-04-14T12:12:25.427Z,17.90
2018-04-14T12:13:25.432Z,17.95
2018-04-14T12:15:19.402Z,17.78
2018-04-14T12:16:18.405Z,17.81
2018-04-14T12:18:11.307Z,17.87
2018-04-14T12:19:11.333Z,17.92
2018-04-14T12:21:04.271Z,17.96
2018-04-14T12:22:04.275Z,17.97
2018-04-14T12:23:57.258Z,17.90
2018-04-14T12:24:57.222Z,17.92
2018-04-14T12:26:50.147Z,17.95
2018-04-14T12:27:50.153Z,18.05
2018-04-14T12:29:43.085Z,18.42
2018-04-14T12:30:43.092Z,18.55
2018-04-14T12:32:36.003Z,18.66
2018-04-14T12:33:36.029Z,18.72
2018-04-14T12:35:28.966Z,18.84
2018-04-14T12:36:28.974Z,18.84
2018-04-14T12:38:22.952Z,18.78
2018-04-14T12:39:22.914Z,18.80
2018-04-14T12:41:15.840Z,18.32
2018-04-14T12:42:15.849Z,18.26
2018-04-14T12:44:08.759Z,18.50
2018-04-14T12:45:08.804Z,18.72
2018-04-14T12:47:01.719Z,18.84
2018-04-14T12:48:01.731Z,18.98
2018-04-14T12:49:54.641Z,18.88
2018-04-14T12:50:54.670Z,18.58
2018-04-14T12:52:47.622Z,18.47
2018-04-14T12:53:47.634Z,18.39
2018-04-14T12:55:40.566Z,18.45
2018-04-14T12:56:40.580Z,18.50
2018-04-14T12:58:33.487Z,18.69
2018-04-14T12:59:33.521Z,18.80
2018-04-14T13:01:26.446Z,18.87
2018-04-14T13:02:26.464Z,19.13
2018-04-14T13:04:19.368Z,19.25
2018-04-14T13:05:19.393Z,19.31
2018-04-14T13:07:12.327Z,19.23
2018-04-14T13:08:12.340Z,19.23
2018-04-14T13:10:05.251Z,19.32
2018-04-14T13:11:05.283Z,19.29
2018-04-14T13:12:58.332Z,19.14
2018-04-14T13:13:58.235Z,18.87
2018-04-14T13:15:51.153Z,19.19
2018-04-14T13:16:51.165Z,19.28
2018-04-14T13:18:44.074Z,19.29
2018-04-14T13:19:44.099Z,19.32
2018-04-14T13:21:37.054Z,19.26
2018-04-14T13:22:37.050Z,19.29
2018-04-14T13:24:29.955Z,19.51
2018-04-14T13:25:29.988Z,19.61
2018-04-14T13:27:22.932Z,19.61
2018-04-14T13:28:22.925Z,19.62
2018-04-14T13:30:15.891Z,19.46
2018-04-14T13:31:15.868Z,19.33
2018-04-14T13:33:08.795Z,18.99
2018-04-14T13:34:08.803Z,18.99
2018-04-14T13:36:01.735Z,18.85
2018-04-14T13:37:01.751Z,18.82
2018-04-14T13:38:54.659Z,18.95
2018-04-14T13:39:54.698Z,18.69
2018-04-14T13:41:47.638Z,18.84
2018-04-14T13:42:47.641Z,18.91
2018-04-14T13:44:40.537Z,18.82
2018-04-14T13:45:40.563Z,18.94
2018-04-14T13:47:33.493Z,18.92
2018-04-14T13:48:33.508Z,18.75
2018-04-14T13:50:26.483Z,18.70
2018-04-14T13:51:26.491Z,18.67
2018-04-14T13:53:19.432Z,18.48
2018-04-14T13:54:19.438Z,18.32
2018-04-14T13:56:12.862Z,18.37
2018-04-14T13:57:12.871Z,18.41
2018-04-14T13:59:05.787Z,18.52
2018-04-14T14:00:05.872Z,18.60
2018-04-14T14:01:58.804Z,18.60
2018-04-14T14:02:58.777Z,18.48
2018-04-14T14:04:51.690Z,18.47
2018-04-14T14:05:51.719Z,18.41
2018-04-14T14:07:44.715Z,18.18
2018-04-14T14:08:44.679Z,18.37
2018-04-14T14:10:37.576Z,18.51
2018-04-14T14:11:37.603Z,18.50
2018-04-14T14:13:30.613Z,18.62
2018-04-14T14:14:30.545Z,18.87
2018-04-14T14:16:23.472Z,18.76
2018-04-14T14:17:23.485Z,18.80
2018-04-14T14:19:16.405Z,18.76
2018-04-14T14:20:16.425Z,18.81
2018-04-14T14:22:09.950Z,18.70
2018-04-14T14:23:09.899Z,18.65
2018-04-14T14:25:02.800Z,18.87
2018-04-14T14:26:02.801Z,19.04
2018-04-14T14:27:55.736Z,18.95
2018-04-14T14:28:55.746Z,19.00
2018-04-14T14:30:48.658Z,18.82
2018-04-14T14:31:48.696Z,18.90
2018-04-14T14:33:41.630Z,18.82
2018-04-14T14:34:41.633Z,18.72
2018-04-14T14:36:34.548Z,18.55
2018-04-14T14:37:34.576Z,18.51
2018-04-14T14:39:27.517Z,18.60
2018-04-14T14:40:27.523Z,18.57
2018-04-14T14:42:21.001Z,18.54
2018-04-14T14:43:20.958Z,18.66
2018-04-14T14:45:13.912Z,18.85
2018-04-14T14:46:13.925Z,18.90
2018-04-14T14:48:06.833Z,18.76
2018-04-14T14:49:06.837Z,18.75
2018-04-14T14:50:59.756Z,18.73
2018-04-14T14:51:59.786Z,18.66
2018-04-14T14:54:52.738Z,18.41
2018-04-14T14:56:45.675Z,18.47
2018-04-14T14:57:45.672Z,18.52
2018-04-14T14:59:38.606Z,18.58
2018-04-14T15:00:38.618Z,18.70
2018-04-14T15:02:31.536Z,18.76
2018-04-14T15:03:31.565Z,18.80
2018-04-14T15:05:24.987Z,18.82
2018-04-14T15:06:24.996Z,18.84
2018-04-14T15:08:17.953Z,18.78
2018-04-14T15:09:17.975Z,18.85
2018-04-14T15:11:10.924Z,18.72
2018-04-14T15:12:10.932Z,18.81
2018-04-14T15:14:03.879Z,18.88
2018-04-14T15:15:03.887Z,18.92
2018-04-14T15:16:56.855Z,19.21
2018-04-14T15:17:56.840Z,19.00
2018-04-14T15:19:49.775Z,18.90
2018-04-14T15:20:49.792Z,18.92
2018-04-14T15:22:42.735Z,18.99
2018-04-14T15:23:42.744Z,18.87
2018-04-14T15:25:35.776Z,18.69
2018-04-14T15:26:35.811Z,18.81
2018-04-14T15:28:28.775Z,18.69
2018-04-14T15:29:28.766Z,18.62
2018-04-14T15:31:21.785Z,18.75
2018-04-14T15:32:21.813Z,18.85
2018-04-14T15:34:14.760Z,18.85
2018-04-14T15:35:14.767Z,18.87
2018-04-14T15:37:07.868Z,18.82
2018-04-14T15:38:07.821Z,18.67
2018-04-14T15:40:00.749Z,18.52
2018-04-14T15:41:00.775Z,18.55
2018-04-14T15:42:53.742Z,18.63
2018-04-14T15:43:53.728Z,18.57
2018-04-14T15:45:46.658Z,18.60
2018-04-14T15:46:46.683Z,18.58
2018-04-14T15:48:39.626Z,18.50
2018-04-14T15:49:39.634Z,18.36
2018-04-14T15:51:32.565Z,18.35
2018-04-14T15:52:32.639Z,18.26
2018-04-14T15:54:25.544Z,18.27
2018-04-14T15:55:25.543Z,18.18
2018-04-14T15:57:18.546Z,18.18
2018-04-14T15:58:18.499Z,18.26
2018-04-14T16:00:11.525Z,18.11
2018-04-14T16:01:11.550Z,18.08
2018-04-14T16:03:04.503Z,17.97
2018-04-14T16:04:09.787Z,17.78
2018-04-14T16:05:57.434Z,17.77
2018-04-14T16:06:57.461Z,17.78
2018-04-14T16:08:50.412Z,17.74
2018-04-14T16:09:50.421Z,17.75
2018-04-14T16:11:43.399Z,17.86
2018-04-14T16:12:43.377Z,17.84
2018-04-14T16:14:37.850Z,17.78
2018-04-14T16:15:37.857Z,17.75
2018-04-14T16:17:30.810Z,17.70
2018-04-14T16:18:30.885Z,17.59
2018-04-14T16:20:23.740Z,17.44
2018-04-14T16:21:23.770Z,17.40
2018-04-14T16:23:16.710Z,17.22
2018-04-14T16:24:16.717Z,17.25
2018-04-14T16:26:11.183Z,17.23
2018-04-14T16:27:11.209Z,17.34
2018-04-14T16:29:04.161Z,17.33
2018-04-14T16:30:04.163Z,17.26
2018-04-14T16:31:57.105Z,17.26
2018-04-14T16:32:57.136Z,17.18
2018-04-14T16:34:50.167Z,17.15
2018-04-14T16:35:50.182Z,17.15
2018-04-14T16:37:43.118Z,17.16
2018-04-14T16:38:43.129Z,17.16
2018-04-14T16:40:36.074Z,17.16
2018-04-14T16:41:36.081Z,17.14
2018-04-14T16:43:29.030Z,17.08
2018-04-14T16:44:29.034Z,17.12
2018-04-14T16:46:22.006Z,17.08
2018-04-14T16:47:22.030Z,17.06
2018-04-14T16:49:15.549Z,16.98
2018-04-14T16:50:15.556Z,17.06
2018-04-14T16:52:08.487Z,17.14
2018-04-14T16:53:08.513Z,17.19
2018-04-14T16:55:01.566Z,17.34
2018-04-14T16:56:01.488Z,17.28
2018-04-14T16:57:54.943Z,17.34
2018-04-14T16:58:54.930Z,17.36
2018-04-14T17:00:47.860Z,17.37
2018-04-14T17:01:47.886Z,17.40
2018-04-14T17:03:40.835Z,17.51
2018-04-14T17:04:40.838Z,17.49
2018-04-14T17:06:33.767Z,17.52
2018-04-14T17:07:33.790Z,17.49
2018-04-14T17:09:26.737Z,17.48
2018-04-14T17:10:26.746Z,17.33
2018-04-14T17:12:19.687Z,17.22
2018-04-14T17:13:19.709Z,17.19
2018-04-14T17:15:12.649Z,17.14
2018-04-14T17:16:12.655Z,17.12
2018-04-14T17:18:05.609Z,17.16
2018-04-14T17:19:05.609Z,17.22
2018-04-14T17:20:58.542Z,17.21
2018-04-14T17:21:58.562Z,17.18
2018-04-14T17:23:51.509Z,17.12
2018-04-14T17:24:51.516Z,17.12
2018-04-14T17:26:44.442Z,17.11
2018-04-14T17:27:44.470Z,17.07
2018-04-14T17:29:37.416Z,17.07
2018-04-14T17:30:37.424Z,17.01
2018-04-14T17:32:30.351Z,17.07
2018-04-14T17:33:30.377Z,17.14
2018-04-14T17:35:23.342Z,17.01
2018-04-14T17:36:23.329Z,17.07
2018-04-14T17:38:16.349Z,17.00
2018-04-14T17:39:16.285Z,17.03
2018-04-14T17:41:09.218Z,17.00
2018-04-14T17:42:09.243Z,17.06
2018-04-14T17:44:02.188Z,17.00
2018-04-14T17:45:02.196Z,16.97
2018-04-14T17:46:55.122Z,16.93
2018-04-14T17:47:55.149Z,16.91
2018-04-14T17:49:48.141Z,16.86
2018-04-14T17:50:48.112Z,16.85
2018-04-14T17:52:41.289Z,16.91
2018-04-14T17:53:41.083Z,16.83
2018-04-14T17:55:34.047Z,16.91
2018-04-14T17:56:34.009Z,16.91
2018-04-14T17:58:30.029Z,16.94
2018-04-14T17:59:30.034Z,16.89
2018-04-14T18:01:22.964Z,16.81
2018-04-14T18:02:22.989Z,16.75
2018-04-14T18:04:15.944Z,16.68
2018-04-14T18:05:15.943Z,16.67
2018-04-14T18:07:08.885Z,16.63
2018-04-14T18:08:08.896Z,16.58
2018-04-14T18:10:01.954Z,16.49
2018-04-14T18:11:01.957Z,16.52
2018-04-14T18:12:55.929Z,16.50
2018-04-14T18:13:55.934Z,16.50
2018-04-14T18:15:48.893Z,16.35
2018-04-14T18:16:48.884Z,16.39
2018-04-14T18:18:41.841Z,16.20
2018-04-14T18:19:41.839Z,16.04
2018-04-14T18:21:34.783Z,15.89
2018-04-14T18:22:34.795Z,15.80
2018-04-14T18:24:27.742Z,15.74
2018-04-14T18:25:27.746Z,15.67
2018-04-14T18:27:20.683Z,15.62
2018-04-14T18:28:20.703Z,15.62
2018-04-14T18:30:13.646Z,15.54
2018-04-14T18:31:13.653Z,15.59
2018-04-14T18:33:06.581Z,15.64
2018-04-14T18:34:06.612Z,15.56